sensor_id;sensor_type;location;lat;lon;timestamp;pressure;altitude;pressure_sealevel;temperature;humidity
48156;BME280;35568;48.104;11.782;2023-01-05T00:00:11;95864.60;;;9.86;51.24
48156;BME280;35568;48.104;11.782;2023-01-05T00:02:38;95856.23;;;9.97;51.05
48156;BME280;35568;48.104;11.782;2023-01-05T00:05:05;95854.36;;;9.91;50.77
48156;BME280;35568;48.104;11.782;2023-01-05T00:07:32;95862.92;;;9.97;50.61
48156;BME280;35568;48.104;11.782;2023-01-05T00:09:59;95860.75;;;10.12;50.50
48156;BME280;35568;48.104;11.782;2023-01-05T00:12:26;95862.54;;;10.13;49.75
48156;BME280;35568;48.104;11.782;2023-01-05T00:14:53;95862.42;;;10.36;49.76
48156;BME280;35568;48.104;11.782;2023-01-05T00:17:21;95858.59;;;10.17;50.03
48156;BME280;35568;48.104;11.782;2023-01-05T00:19:48;95857.79;;;9.77;50.87
48156;BME280;35568;48.104;11.782;2023-01-05T00:22:16;95858.76;;;9.59;51.19
48156;BME280;35568;48.104;11.782;2023-01-05T00:24:44;95851.25;;;10.11;50.41
48156;BME280;35568;48.104;11.782;2023-01-05T00:27:11;95851.83;;;10.07;50.27
48156;BME280;35568;48.104;11.782;2023-01-05T00:29:38;95850.86;;;9.66;50.86
48156;BME280;35568;48.104;11.782;2023-01-05T00:32:04;95837.18;;;10.07;50.63
48156;BME280;35568;48.104;11.782;2023-01-05T00:34:31;95829.86;;;10.10;50.30
48156;BME280;35568;48.104;11.782;2023-01-05T00:36:58;95830.63;;;9.89;50.48
48156;BME280;35568;48.104;11.782;2023-01-05T00:39:25;95829.00;;;9.74;50.32
48156;BME280;35568;48.104;11.782;2023-01-05T00:41:52;95826.57;;;10.02;50.28
48156;BME280;35568;48.104;11.782;2023-01-05T00:44:18;95822.84;;;9.73;50.40
48156;BME280;35568;48.104;11.782;2023-01-05T00:46:45;95821.57;;;9.62;50.34
48156;BME280;35568;48.104;11.782;2023-01-05T00:49:12;95814.61;;;10.12;50.01
48156;BME280;35568;48.104;11.782;2023-01-05T00:51:39;95810.29;;;10.14;50.02
48156;BME280;35568;48.104;11.782;2023-01-05T00:54:06;95818.12;;;10.28;49.70
48156;BME280;35568;48.104;11.782;2023-01-05T00:56:33;95824.18;;;9.79;50.83
48156;BME280;35568;48.104;11.782;2023-01-05T00:59:00;95821.23;;;9.90;50.31
48156;BME280;35568;48.104;11.782;2023-01-05T01:01:27;95818.04;;;10.18;49.80
48156;BME280;35568;48.104;11.782;2023-01-05T01:03:54;95822.73;;;10.03;49.69
48156;BME280;35568;48.104;11.782;2023-01-05T01:06:22;95819.00;;;9.86;50.14
48156;BME280;35568;48.104;11.782;2023-01-05T01:08:49;95814.18;;;10.04;50.03
48156;BME280;35568;48.104;11.782;2023-01-05T01:11:16;95807.34;;;10.21;49.40
48156;BME280;35568;48.104;11.782;2023-01-05T01:13:43;95822.02;;;10.33;49.37
48156;BME280;35568;48.104;11.782;2023-01-05T01:16:12;95813.61;;;10.55;48.82
48156;BME280;35568;48.104;11.782;2023-01-05T01:18:41;95823.23;;;10.17;49.57
48156;BME280;35568;48.104;11.782;2023-01-05T01:21:08;95813.91;;;10.50;49.03
48156;BME280;35568;48.104;11.782;2023-01-05T01:23:36;95816.68;;;9.77;49.83
48156;BME280;35568;48.104;11.782;2023-01-05T01:26:03;95823.14;;;10.09;49.58
48156;BME280;35568;48.104;11.782;2023-01-05T01:28:31;95815.86;;;10.41;49.57
48156;BME280;35568;48.104;11.782;2023-01-05T01:30:57;95819.57;;;10.01;49.63
48156;BME280;35568;48.104;11.782;2023-01-05T01:33:24;95827.00;;;9.81;49.43
48156;BME280;35568;48.104;11.782;2023-01-05T01:35:51;95822.75;;;9.97;49.06
48156;BME280;35568;48.104;11.782;2023-01-05T01:38:18;95818.60;;;10.68;48.62
48156;BME280;35568;48.104;11.782;2023-01-05T01:40:45;95807.93;;;10.19;50.20
48156;BME280;35568;48.104;11.782;2023-01-05T01:43:14;95807.00;;;10.29;49.97
48156;BME280;35568;48.104;11.782;2023-01-05T01:45:41;95809.61;;;9.43;50.19
48156;BME280;35568;48.104;11.782;2023-01-05T01:48:09;95801.61;;;9.85;50.38
48156;BME280;35568;48.104;11.782;2023-01-05T01:50:39;95804.35;;;10.21;50.41
48156;BME280;35568;48.104;11.782;2023-01-05T01:53:12;95804.19;;;9.81;50.13
48156;BME280;35568;48.104;11.782;2023-01-05T01:55:40;95796.83;;;10.12;49.50
48156;BME280;35568;48.104;11.782;2023-01-05T01:58:10;95817.24;;;9.75;50.11
48156;BME280;35568;48.104;11.782;2023-01-05T02:00:40;95801.53;;;9.96;50.57
48156;BME280;35568;48.104;11.782;2023-01-05T02:03:07;95781.78;;;9.90;50.86
48156;BME280;35568;48.104;11.782;2023-01-05T02:05:35;95778.12;;;9.77;51.80
48156;BME280;35568;48.104;11.782;2023-01-05T02:08:02;95782.60;;;9.67;51.76
48156;BME280;35568;48.104;11.782;2023-01-05T02:10:40;95780.64;;;9.70;51.27
48156;BME280;35568;48.104;11.782;2023-01-05T02:13:19;95781.45;;;9.65;51.15
48156;BME280;35568;48.104;11.782;2023-01-05T02:15:52;95778.46;;;9.54;51.66
48156;BME280;35568;48.104;11.782;2023-01-05T02:18:35;95771.66;;;9.47;51.77
48156;BME280;35568;48.104;11.782;2023-01-05T02:21:18;95773.90;;;9.52;51.73
48156;BME280;35568;48.104;11.782;2023-01-05T02:24:16;95740.82;;;9.70;52.21
48156;BME280;35568;48.104;11.782;2023-01-05T02:26:59;95734.24;;;9.34;53.09
48156;BME280;35568;48.104;11.782;2023-01-05T02:29:54;95724.41;;;8.97;53.38
48156;BME280;35568;48.104;11.782;2023-01-05T02:32:28;95716.49;;;9.54;53.46
48156;BME280;35568;48.104;11.782;2023-01-05T02:35:05;95706.90;;;9.78;52.91
48156;BME280;35568;48.104;11.782;2023-01-05T02:37:40;95698.96;;;9.61;52.60
48156;BME280;35568;48.104;11.782;2023-01-05T02:40:14;95700.74;;;9.68;51.95
48156;BME280;35568;48.104;11.782;2023-01-05T02:42:45;95706.40;;;9.44;52.16
48156;BME280;35568;48.104;11.782;2023-01-05T02:45:15;95704.97;;;9.89;52.19
48156;BME280;35568;48.104;11.782;2023-01-05T02:47:43;95700.70;;;9.61;51.58
48156;BME280;35568;48.104;11.782;2023-01-05T02:50:14;95698.54;;;9.51;51.80
48156;BME280;35568;48.104;11.782;2023-01-05T02:52:55;95691.08;;;9.98;51.59
48156;BME280;35568;48.104;11.782;2023-01-05T02:55:26;95690.01;;;10.15;51.47
48156;BME280;35568;48.104;11.782;2023-01-05T02:58:00;95681.23;;;9.65;51.48
48156;BME280;35568;48.104;11.782;2023-01-05T03:00:33;95680.57;;;9.81;51.48
48156;BME280;35568;48.104;11.782;2023-01-05T03:03:05;95687.09;;;10.03;51.71
48156;BME280;35568;48.104;11.782;2023-01-05T03:05:35;95704.26;;;10.08;51.56
48156;BME280;35568;48.104;11.782;2023-01-05T03:08:05;95698.31;;;9.58;52.94
48156;BME280;35568;48.104;11.782;2023-01-05T03:10:39;95692.84;;;9.32;53.22
48156;BME280;35568;48.104;11.782;2023-01-05T03:13:08;95678.72;;;9.30;53.66
48156;BME280;35568;48.104;11.782;2023-01-05T03:15:37;95676.46;;;9.42;53.91
48156;BME280;35568;48.104;11.782;2023-01-05T03:18:06;95673.42;;;10.09;53.04
48156;BME280;35568;48.104;11.782;2023-01-05T03:20:39;95670.95;;;9.55;53.06
48156;BME280;35568;48.104;11.782;2023-01-05T03:23:10;95668.02;;;9.70;52.61
48156;BME280;35568;48.104;11.782;2023-01-05T03:25:39;95673.18;;;9.65;53.15
48156;BME280;35568;48.104;11.782;2023-01-05T03:28:09;95682.88;;;9.40;53.45
48156;BME280;35568;48.104;11.782;2023-01-05T03:30:42;95684.94;;;9.36;54.51
48156;BME280;35568;48.104;11.782;2023-01-05T03:34:41;95674.72;;;9.66;54.37
48156;BME280;35568;48.104;11.782;2023-01-05T03:37:14;95672.42;;;9.67;54.30
48156;BME280;35568;48.104;11.782;2023-01-05T03:39:45;95665.05;;;9.38;53.83
48156;BME280;35568;48.104;11.782;2023-01-05T03:42:14;95669.75;;;9.65;54.08
48156;BME280;35568;48.104;11.782;2023-01-05T03:44:44;95666.08;;;9.78;53.57
48156;BME280;35568;48.104;11.782;2023-01-05T03:47:12;95655.89;;;9.17;54.61
48156;BME280;35568;48.104;11.782;2023-01-05T03:49:39;95666.88;;;9.35;54.25
48156;BME280;35568;48.104;11.782;2023-01-05T03:52:06;95662.82;;;9.03;54.60
48156;BME280;35568;48.104;11.782;2023-01-05T03:54:33;95653.18;;;9.73;53.55
48156;BME280;35568;48.104;11.782;2023-01-05T03:56:59;95651.38;;;9.12;53.47
48156;BME280;35568;48.104;11.782;2023-01-05T03:59:26;95659.68;;;9.81;53.09
48156;BME280;35568;48.104;11.782;2023-01-05T04:03:01;95643.54;;;9.98;52.78
48156;BME280;35568;48.104;11.782;2023-01-05T04:05:27;95641.40;;;9.87;52.90
48156;BME280;35568;48.104;11.782;2023-01-05T04:07:54;95648.56;;;9.62;53.44
48156;BME280;35568;48.104;11.782;2023-01-05T04:10:21;95639.02;;;9.41;53.02
48156;BME280;35568;48.104;11.782;2023-01-05T04:12:48;95637.71;;;9.43;52.73
48156;BME280;35568;48.104;11.782;2023-01-05T04:15:14;95627.72;;;9.94;52.05
48156;BME280;35568;48.104;11.782;2023-01-05T04:17:41;95616.96;;;9.84;51.82
48156;BME280;35568;48.104;11.782;2023-01-05T04:20:09;95627.29;;;9.68;52.92
48156;BME280;35568;48.104;11.782;2023-01-05T04:22:37;95621.92;;;9.84;52.36
48156;BME280;35568;48.104;11.782;2023-01-05T04:25:04;95636.29;;;9.85;52.63
48156;BME280;35568;48.104;11.782;2023-01-05T04:27:31;95643.66;;;9.99;52.44
48156;BME280;35568;48.104;11.782;2023-01-05T04:29:58;95649.72;;;9.80;52.20
48156;BME280;35568;48.104;11.782;2023-01-05T04:32:25;95657.89;;;10.04;51.59
48156;BME280;35568;48.104;11.782;2023-01-05T04:34:51;95665.21;;;9.98;51.61
48156;BME280;35568;48.104;11.782;2023-01-05T04:37:18;95669.30;;;10.17;51.23
48156;BME280;35568;48.104;11.782;2023-01-05T04:39:45;95669.83;;;10.32;50.67
48156;BME280;35568;48.104;11.782;2023-01-05T04:42:12;95682.81;;;10.61;50.48
48156;BME280;35568;48.104;11.782;2023-01-05T04:44:39;95685.16;;;10.54;50.55
48156;BME280;35568;48.104;11.782;2023-01-05T04:47:05;95684.65;;;10.60;50.35
48156;BME280;35568;48.104;11.782;2023-01-05T04:49:32;95682.94;;;10.58;50.47
48156;BME280;35568;48.104;11.782;2023-01-05T04:51:59;95680.17;;;10.44;50.50
48156;BME280;35568;48.104;11.782;2023-01-05T04:54:26;95668.41;;;9.96;50.92
48156;BME280;35568;48.104;11.782;2023-01-05T04:56:53;95672.25;;;10.10;51.27
48156;BME280;35568;48.104;11.782;2023-01-05T04:59:19;95667.20;;;10.54;50.95
48156;BME280;35568;48.104;11.782;2023-01-05T05:01:46;95675.02;;;10.09;51.10
48156;BME280;35568;48.104;11.782;2023-01-05T05:04:13;95655.75;;;10.01;51.49
48156;BME280;35568;48.104;11.782;2023-01-05T05:06:40;95653.22;;;10.25;51.62
48156;BME280;35568;48.104;11.782;2023-01-05T05:09:07;95658.89;;;9.54;51.92
48156;BME280;35568;48.104;11.782;2023-01-05T05:11:33;95671.15;;;10.13;51.82
48156;BME280;35568;48.104;11.782;2023-01-05T05:14:00;95646.92;;;10.00;51.31
48156;BME280;35568;48.104;11.782;2023-01-05T05:16:27;95646.59;;;9.80;51.94
48156;BME280;35568;48.104;11.782;2023-01-05T05:18:54;95645.86;;;10.18;51.86
48156;BME280;35568;48.104;11.782;2023-01-05T05:21:21;95657.19;;;9.99;51.61
48156;BME280;35568;48.104;11.782;2023-01-05T05:23:47;95657.78;;;10.39;51.08
48156;BME280;35568;48.104;11.782;2023-01-05T05:26:14;95661.64;;;10.24;50.65
48156;BME280;35568;48.104;11.782;2023-01-05T05:28:41;95660.98;;;10.65;50.28
48156;BME280;35568;48.104;11.782;2023-01-05T05:31:08;95653.55;;;10.20;50.31
48156;BME280;35568;48.104;11.782;2023-01-05T05:33:35;95666.66;;;10.18;50.50
48156;BME280;35568;48.104;11.782;2023-01-05T05:36:01;95667.94;;;10.58;50.19
48156;BME280;35568;48.104;11.782;2023-01-05T05:38:28;95665.50;;;10.63;50.04
48156;BME280;35568;48.104;11.782;2023-01-05T05:40:55;95648.76;;;10.22;50.77
48156;BME280;35568;48.104;11.782;2023-01-05T05:43:22;95660.11;;;10.21;51.06
48156;BME280;35568;48.104;11.782;2023-01-05T05:45:49;95665.21;;;10.07;51.04
48156;BME280;35568;48.104;11.782;2023-01-05T05:48:15;95670.38;;;10.42;51.25
48156;BME280;35568;48.104;11.782;2023-01-05T05:50:43;95678.79;;;10.10;51.82
48156;BME280;35568;48.104;11.782;2023-01-05T05:53:10;95691.33;;;9.81;51.61
48156;BME280;35568;48.104;11.782;2023-01-05T05:55:37;95688.53;;;10.24;50.96
48156;BME280;35568;48.104;11.782;2023-01-05T05:58:03;95685.17;;;10.59;50.57
48156;BME280;35568;48.104;11.782;2023-01-05T06:00:30;95697.69;;;10.49;50.40
48156;BME280;35568;48.104;11.782;2023-01-05T06:02:57;95687.27;;;10.08;50.99
48156;BME280;35568;48.104;11.782;2023-01-05T06:05:24;95702.36;;;9.94;51.36
48156;BME280;35568;48.104;11.782;2023-01-05T06:07:51;95687.28;;;10.36;50.79
48156;BME280;35568;48.104;11.782;2023-01-05T06:10:17;95698.95;;;10.17;50.87
48156;BME280;35568;48.104;11.782;2023-01-05T06:12:44;95692.02;;;10.39;51.05
48156;BME280;35568;48.104;11.782;2023-01-05T06:15:11;95710.52;;;9.95;51.18
48156;BME280;35568;48.104;11.782;2023-01-05T06:17:38;95703.29;;;9.13;51.77
48156;BME280;35568;48.104;11.782;2023-01-05T06:20:07;95714.87;;;9.94;51.42
48156;BME280;35568;48.104;11.782;2023-01-05T06:22:34;95712.18;;;10.15;51.03
48156;BME280;35568;48.104;11.782;2023-01-05T06:25:01;95705.65;;;10.26;50.73
48156;BME280;35568;48.104;11.782;2023-01-05T06:27:27;95708.73;;;10.22;50.38
48156;BME280;35568;48.104;11.782;2023-01-05T06:29:54;95708.57;;;10.34;50.21
48156;BME280;35568;48.104;11.782;2023-01-05T06:32:22;95711.39;;;10.33;50.07
48156;BME280;35568;48.104;11.782;2023-01-05T06:34:49;95711.50;;;10.27;50.89
48156;BME280;35568;48.104;11.782;2023-01-05T06:37:16;95708.82;;;9.44;52.04
48156;BME280;35568;48.104;11.782;2023-01-05T06:39:42;95714.52;;;10.08;51.91
48156;BME280;35568;48.104;11.782;2023-01-05T06:42:09;95710.08;;;9.83;51.95
48156;BME280;35568;48.104;11.782;2023-01-05T06:44:36;95709.90;;;9.58;52.39
48156;BME280;35568;48.104;11.782;2023-01-05T06:47:03;95715.44;;;9.87;51.70
48156;BME280;35568;48.104;11.782;2023-01-05T06:49:30;95724.09;;;10.20;51.19
48156;BME280;35568;48.104;11.782;2023-01-05T06:51:56;95727.40;;;10.24;50.83
48156;BME280;35568;48.104;11.782;2023-01-05T06:54:23;95725.67;;;10.44;50.51
48156;BME280;35568;48.104;11.782;2023-01-05T06:56:50;95734.98;;;10.38;50.69
48156;BME280;35568;48.104;11.782;2023-01-05T06:59:17;95735.82;;;9.91;51.34
48156;BME280;35568;48.104;11.782;2023-01-05T07:01:44;95737.74;;;10.02;51.23
48156;BME280;35568;48.104;11.782;2023-01-05T07:04:10;95736.63;;;10.11;51.01
48156;BME280;35568;48.104;11.782;2023-01-05T07:06:37;95750.86;;;10.00;51.34
48156;BME280;35568;48.104;11.782;2023-01-05T07:09:04;95743.55;;;9.93;51.49
48156;BME280;35568;48.104;11.782;2023-01-05T07:11:31;95760.25;;;10.00;52.02
48156;BME280;35568;48.104;11.782;2023-01-05T07:13:57;95746.73;;;9.56;52.00
48156;BME280;35568;48.104;11.782;2023-01-05T07:16:24;95744.32;;;10.01;51.73
48156;BME280;35568;48.104;11.782;2023-01-05T07:18:51;95749.66;;;9.76;52.63
48156;BME280;35568;48.104;11.782;2023-01-05T07:21:18;95743.69;;;9.82;51.92
48156;BME280;35568;48.104;11.782;2023-01-05T07:23:45;95757.19;;;9.33;52.59
48156;BME280;35568;48.104;11.782;2023-01-05T07:26:12;95762.01;;;9.83;51.81
48156;BME280;35568;48.104;11.782;2023-01-05T07:28:39;95755.73;;;10.14;51.52
48156;BME280;35568;48.104;11.782;2023-01-05T07:31:06;95755.92;;;10.55;50.73
48156;BME280;35568;48.104;11.782;2023-01-05T07:33:33;95758.15;;;9.71;52.00
48156;BME280;35568;48.104;11.782;2023-01-05T07:36:01;95765.66;;;9.70;51.98
48156;BME280;35568;48.104;11.782;2023-01-05T07:38:28;95775.15;;;9.81;51.89
48156;BME280;35568;48.104;11.782;2023-01-05T07:40:57;95778.58;;;10.52;51.02
48156;BME280;35568;48.104;11.782;2023-01-05T07:43:24;95779.26;;;10.61;50.26
48156;BME280;35568;48.104;11.782;2023-01-05T07:45:51;95786.83;;;10.21;51.01
48156;BME280;35568;48.104;11.782;2023-01-05T07:48:22;95789.74;;;10.24;51.33
48156;BME280;35568;48.104;11.782;2023-01-05T07:50:49;95783.48;;;10.22;51.19
48156;BME280;35568;48.104;11.782;2023-01-05T07:53:16;95788.40;;;10.05;51.43
48156;BME280;35568;48.104;11.782;2023-01-05T07:55:42;95786.67;;;10.12;51.29
48156;BME280;35568;48.104;11.782;2023-01-05T07:58:09;95780.45;;;10.41;50.69
48156;BME280;35568;48.104;11.782;2023-01-05T08:00:36;95793.19;;;10.26;50.48
48156;BME280;35568;48.104;11.782;2023-01-05T08:03:03;95794.37;;;10.37;50.32
48156;BME280;35568;48.104;11.782;2023-01-05T08:05:30;95779.48;;;10.44;50.41
48156;BME280;35568;48.104;11.782;2023-01-05T08:07:56;95797.75;;;9.97;51.31
48156;BME280;35568;48.104;11.782;2023-01-05T08:10:23;95791.96;;;10.12;51.05
48156;BME280;35568;48.104;11.782;2023-01-05T08:12:50;95799.10;;;10.26;51.24
48156;BME280;35568;48.104;11.782;2023-01-05T08:15:17;95801.00;;;10.00;51.51
48156;BME280;35568;48.104;11.782;2023-01-05T08:17:43;95786.20;;;9.85;51.47
48156;BME280;35568;48.104;11.782;2023-01-05T08:20:10;95795.97;;;10.05;51.24
48156;BME280;35568;48.104;11.782;2023-01-05T08:22:37;95800.13;;;10.46;51.40
48156;BME280;35568;48.104;11.782;2023-01-05T08:25:05;95808.49;;;10.17;51.35
48156;BME280;35568;48.104;11.782;2023-01-05T08:27:33;95803.98;;;10.16;51.23
48156;BME280;35568;48.104;11.782;2023-01-05T08:29:59;95807.14;;;10.10;51.20
48156;BME280;35568;48.104;11.782;2023-01-05T08:32:26;95817.39;;;9.53;52.29
48156;BME280;35568;48.104;11.782;2023-01-05T08:34:53;95816.57;;;9.62;52.25
48156;BME280;35568;48.104;11.782;2023-01-05T08:37:19;95821.92;;;10.09;52.58
48156;BME280;35568;48.104;11.782;2023-01-05T08:39:46;95826.70;;;9.81;53.09
48156;BME280;35568;48.104;11.782;2023-01-05T08:42:13;95828.48;;;9.79;52.21
48156;BME280;35568;48.104;11.782;2023-01-05T08:44:40;95827.97;;;10.26;51.43
48156;BME280;35568;48.104;11.782;2023-01-05T08:47:07;95838.62;;;10.40;51.58
48156;BME280;35568;48.104;11.782;2023-01-05T08:49:33;95843.39;;;10.29;51.77
48156;BME280;35568;48.104;11.782;2023-01-05T08:52:00;95844.95;;;10.26;51.93
48156;BME280;35568;48.104;11.782;2023-01-05T08:54:27;95857.32;;;9.89;53.62
48156;BME280;35568;48.104;11.782;2023-01-05T08:56:54;95853.05;;;9.43;56.15
48156;BME280;35568;48.104;11.782;2023-01-05T08:59:21;95859.95;;;9.13;56.88
48156;BME280;35568;48.104;11.782;2023-01-05T09:01:47;95858.32;;;9.60;56.66
48156;BME280;35568;48.104;11.782;2023-01-05T09:04:14;95861.98;;;9.59;56.31
48156;BME280;35568;48.104;11.782;2023-01-05T09:06:41;95865.78;;;9.94;55.81
48156;BME280;35568;48.104;11.782;2023-01-05T09:09:08;95869.00;;;10.02;55.19
48156;BME280;35568;48.104;11.782;2023-01-05T09:11:35;95870.78;;;10.26;54.78
48156;BME280;35568;48.104;11.782;2023-01-05T09:14:02;95874.45;;;10.12;54.45
48156;BME280;35568;48.104;11.782;2023-01-05T09:16:31;95866.65;;;10.34;54.07
48156;BME280;35568;48.104;11.782;2023-01-05T09:18:59;95883.43;;;10.69;53.24
48156;BME280;35568;48.104;11.782;2023-01-05T09:21:26;95882.70;;;10.41;53.33
48156;BME280;35568;48.104;11.782;2023-01-05T09:23:53;95880.54;;;10.43;52.71
48156;BME280;35568;48.104;11.782;2023-01-05T09:26:20;95881.40;;;10.64;51.93
48156;BME280;35568;48.104;11.782;2023-01-05T09:28:47;95874.68;;;10.48;52.06
48156;BME280;35568;48.104;11.782;2023-01-05T09:31:15;95872.89;;;10.69;51.61
48156;BME280;35568;48.104;11.782;2023-01-05T09:33:43;95880.13;;;10.69;51.22
48156;BME280;35568;48.104;11.782;2023-01-05T09:36:12;95877.80;;;10.84;51.33
48156;BME280;35568;48.104;11.782;2023-01-05T09:38:39;95882.25;;;10.73;50.96
48156;BME280;35568;48.104;11.782;2023-01-05T09:41:12;95882.03;;;10.54;50.82
48156;BME280;35568;48.104;11.782;2023-01-05T09:43:41;95886.91;;;10.20;51.18
48156;BME280;35568;48.104;11.782;2023-01-05T09:46:13;95890.94;;;10.13;51.23
48156;BME280;35568;48.104;11.782;2023-01-05T09:48:44;95896.68;;;10.28;51.22
48156;BME280;35568;48.104;11.782;2023-01-05T09:51:12;95892.09;;;10.24;50.88
48156;BME280;35568;48.104;11.782;2023-01-05T09:53:40;95903.28;;;10.83;50.40
48156;BME280;35568;48.104;11.782;2023-01-05T09:56:20;95886.81;;;10.54;49.81
48156;BME280;35568;48.104;11.782;2023-01-05T09:58:51;95893.90;;;10.13;50.66
48156;BME280;35568;48.104;11.782;2023-01-05T10:01:19;95897.63;;;10.41;50.56
48156;BME280;35568;48.104;11.782;2023-01-05T10:03:54;95897.51;;;10.65;49.96
48156;BME280;35568;48.104;11.782;2023-01-05T10:06:26;95900.78;;;10.81;49.75
48156;BME280;35568;48.104;11.782;2023-01-05T10:08:55;95909.43;;;10.42;49.19
48156;BME280;35568;48.104;11.782;2023-01-05T10:11:29;95907.80;;;10.94;49.18
48156;BME280;35568;48.104;11.782;2023-01-05T10:14:03;95901.96;;;10.39;49.06
48156;BME280;35568;48.104;11.782;2023-01-05T10:16:31;95910.30;;;11.01;48.60
48156;BME280;35568;48.104;11.782;2023-01-05T10:18:58;95903.91;;;11.03;48.26
48156;BME280;35568;48.104;11.782;2023-01-05T10:21:32;95906.59;;;10.32;48.99
48156;BME280;35568;48.104;11.782;2023-01-05T10:24:14;95910.50;;;10.57;49.22
48156;BME280;35568;48.104;11.782;2023-01-05T10:26:50;95918.08;;;10.66;49.15
48156;BME280;35568;48.104;11.782;2023-01-05T10:29:22;95925.20;;;10.19;49.21
48156;BME280;35568;48.104;11.782;2023-01-05T10:31:55;95915.06;;;10.28;48.97
48156;BME280;35568;48.104;11.782;2023-01-05T10:34:38;95928.40;;;10.56;48.45
48156;BME280;35568;48.104;11.782;2023-01-05T10:37:24;95923.68;;;10.27;48.99
48156;BME280;35568;48.104;11.782;2023-01-05T10:40:06;95916.85;;;10.40;49.02
48156;BME280;35568;48.104;11.782;2023-01-05T10:42:44;95916.73;;;10.62;48.77
48156;BME280;35568;48.104;11.782;2023-01-05T10:45:15;95919.14;;;10.54;48.40
48156;BME280;35568;48.104;11.782;2023-01-05T10:47:44;95923.39;;;10.74;48.06
48156;BME280;35568;48.104;11.782;2023-01-05T10:50:34;95920.98;;;10.79;47.76
48156;BME280;35568;48.104;11.782;2023-01-05T10:53:08;95918.15;;;10.72;47.81
48156;BME280;35568;48.104;11.782;2023-01-05T10:55:42;95912.10;;;11.13;47.63
48156;BME280;35568;48.104;11.782;2023-01-05T10:58:20;95907.00;;;11.00;47.20
48156;BME280;35568;48.104;11.782;2023-01-05T11:00:48;95904.77;;;11.02;47.32
48156;BME280;35568;48.104;11.782;2023-01-05T11:03:17;95909.89;;;11.25;47.18
48156;BME280;35568;48.104;11.782;2023-01-05T11:05:46;95901.20;;;10.98;47.14
48156;BME280;35568;48.104;11.782;2023-01-05T11:08:15;95899.45;;;11.24;47.10
48156;BME280;35568;48.104;11.782;2023-01-05T11:10:55;95905.37;;;11.58;46.14
48156;BME280;35568;48.104;11.782;2023-01-05T11:13:29;95901.43;;;11.44;45.78
48156;BME280;35568;48.104;11.782;2023-01-05T11:16:00;95902.54;;;11.80;45.65
48156;BME280;35568;48.104;11.782;2023-01-05T11:18:33;95899.51;;;11.67;45.64
48156;BME280;35568;48.104;11.782;2023-01-05T11:21:18;95900.79;;;11.91;45.25
48156;BME280;35568;48.104;11.782;2023-01-05T11:23:47;95892.99;;;12.13;45.00
48156;BME280;35568;48.104;11.782;2023-01-05T11:26:26;95897.94;;;11.75;44.91
48156;BME280;35568;48.104;11.782;2023-01-05T11:29:11;95900.50;;;11.67;45.26
48156;BME280;35568;48.104;11.782;2023-01-05T11:31:44;95897.41;;;11.73;45.27
48156;BME280;35568;48.104;11.782;2023-01-05T11:34:16;95899.82;;;11.65;44.96
48156;BME280;35568;48.104;11.782;2023-01-05T11:36:50;95903.46;;;11.84;45.31
48156;BME280;35568;48.104;11.782;2023-01-05T11:39:25;95913.23;;;10.95;48.14
48156;BME280;35568;48.104;11.782;2023-01-05T11:42:12;95909.36;;;10.27;50.25
48156;BME280;35568;48.104;11.782;2023-01-05T11:44:42;95917.36;;;10.38;51.27
48156;BME280;35568;48.104;11.782;2023-01-05T11:47:18;95916.96;;;10.55;51.42
48156;BME280;35568;48.104;11.782;2023-01-05T11:49:47;95927.71;;;10.49;53.37
48156;BME280;35568;48.104;11.782;2023-01-05T11:52:25;95922.22;;;9.70;55.11
48156;BME280;35568;48.104;11.782;2023-01-05T11:54:52;95922.66;;;9.99;55.98
48156;BME280;35568;48.104;11.782;2023-01-05T11:57:20;95921.49;;;9.82;55.82
48156;BME280;35568;48.104;11.782;2023-01-05T11:59:47;95918.56;;;9.94;55.87
48156;BME280;35568;48.104;11.782;2023-01-05T12:02:31;95915.07;;;9.83;55.92
48156;BME280;35568;48.104;11.782;2023-01-05T12:05:16;95916.55;;;9.99;55.95
48156;BME280;35568;48.104;11.782;2023-01-05T12:07:52;95910.80;;;10.03;55.71
48156;BME280;35568;48.104;11.782;2023-01-05T12:10:33;95911.25;;;10.27;54.82
48156;BME280;35568;48.104;11.782;2023-01-05T12:13:10;95903.56;;;10.38;55.04
48156;BME280;35568;48.104;11.782;2023-01-05T12:16:21;95905.90;;;10.48;54.71
48156;BME280;35568;48.104;11.782;2023-01-05T12:19:13;95909.80;;;10.49;54.53
48156;BME280;35568;48.104;11.782;2023-01-05T12:21:55;95915.34;;;10.57;54.34
48156;BME280;35568;48.104;11.782;2023-01-05T12:24:40;95917.34;;;10.45;54.38
48156;BME280;35568;48.104;11.782;2023-01-05T12:27:21;95912.32;;;10.75;53.96
48156;BME280;35568;48.104;11.782;2023-01-05T12:30:16;95905.97;;;10.72;53.75
48156;BME280;35568;48.104;11.782;2023-01-05T12:32:57;95904.07;;;10.62;53.56
48156;BME280;35568;48.104;11.782;2023-01-05T12:35:40;95904.87;;;11.02;53.70
48156;BME280;35568;48.104;11.782;2023-01-05T12:38:22;95902.64;;;10.87;53.41
48156;BME280;35568;48.104;11.782;2023-01-05T12:42:02;95896.53;;;11.06;53.34
48156;BME280;35568;48.104;11.782;2023-01-05T12:44:48;95892.61;;;11.01;52.43
48156;BME280;35568;48.104;11.782;2023-01-05T12:47:33;95896.14;;;11.13;52.19
48156;BME280;35568;48.104;11.782;2023-01-05T12:50:22;95897.52;;;11.14;51.71
48156;BME280;35568;48.104;11.782;2023-01-05T12:52:55;95896.51;;;11.12;51.36
48156;BME280;35568;48.104;11.782;2023-01-05T12:55:26;95894.96;;;11.17;51.68
48156;BME280;35568;48.104;11.782;2023-01-05T12:57:59;95891.41;;;11.26;51.68
48156;BME280;35568;48.104;11.782;2023-01-05T13:00:31;95893.44;;;10.76;52.15
48156;BME280;35568;48.104;11.782;2023-01-05T13:03:01;95888.22;;;10.74;51.81
48156;BME280;35568;48.104;11.782;2023-01-05T13:05:33;95889.78;;;10.70;51.70
48156;BME280;35568;48.104;11.782;2023-01-05T13:08:07;95886.26;;;10.94;51.71
48156;BME280;35568;48.104;11.782;2023-01-05T13:10:44;95883.25;;;11.16;51.33